createdAt,value
2023-05-18T00:01:45.350Z,13.85
2023-05-18T00:04:34.877Z,13.72
2023-05-18T00:07:23.106Z,13.69
2023-05-18T00:10:11.985Z,13.79
2023-05-18T00:12:59.930Z,13.75
2023-05-18T00:15:47.846Z,13.67
2023-05-18T00:18:37.922Z,13.79
2023-05-18T00:21:30.950Z,13.75
2023-05-18T00:24:19.420Z,13.74
2023-05-18T00:27:07.315Z,13.73
2023-05-18T00:29:55.205Z,13.71
2023-05-18T00:32:42.960Z,13.60
2023-05-18T00:35:34.656Z,13.75
2023-05-18T00:38:22.449Z,13.66
2023-05-18T00:41:10.535Z,13.62
2023-05-18T00:44:01.133Z,13.48
2023-05-18T00:46:50.597Z,13.51
2023-05-18T00:49:38.505Z,13.45
2023-05-18T00:52:29.691Z,13.43
2023-05-18T00:55:18.065Z,13.37
2023-05-18T00:58:06.102Z,13.30
2023-05-18T01:00:54.505Z,13.32
2023-05-18T01:03:43.488Z,13.25
2023-05-18T01:06:33.076Z,13.25
2023-05-18T01:09:20.909Z,13.31
2023-05-18T01:12:28.985Z,13.34
2023-05-18T01:15:23.943Z,13.24
2023-05-18T01:18:22.151Z,12.87
2023-05-18T01:21:46.478Z,13.18
2023-05-18T01:24:48.889Z,13.16
2023-05-18T01:27:42.552Z,13.04
2023-05-18T01:30:30.386Z,13.15
2023-05-18T01:33:18.157Z,13.04
2023-05-18T01:36:06.283Z,13.18
2023-05-18T01:38:55.759Z,13.13
2023-05-18T01:42:07.280Z,13.00
2023-05-18T01:45:01.872Z,13.01
2023-05-18T01:47:53.195Z,12.91
2023-05-18T01:50:47.793Z,13.03
2023-05-18T01:53:45.472Z,12.88
2023-05-18T01:56:34.654Z,13.11
2023-05-18T01:59:24.332Z,13.10
2023-05-18T02:02:12.410Z,13.12
2023-05-18T02:05:00.287Z,12.90
2023-05-18T02:07:54.738Z,12.95
2023-05-18T02:10:47.611Z,13.03
2023-05-18T02:13:42.459Z,12.84
2023-05-18T02:16:30.311Z,12.96
2023-05-18T02:19:22.101Z,13.00
2023-05-18T02:22:10.141Z,13.02
2023-05-18T02:24:57.956Z,12.99
2023-05-18T02:27:45.913Z,12.86
2023-05-18T02:30:35.591Z,12.95
2023-05-18T02:33:28.905Z,12.99
2023-05-18T02:36:18.857Z,13.00
2023-05-18T02:39:11.815Z,13.00
2023-05-18T02:42:00.855Z,13.04
2023-05-18T02:44:52.654Z,13.06
2023-05-18T02:47:40.739Z,12.98
2023-05-18T02:50:28.939Z,13.02
2023-05-18T02:53:17.101Z,12.96
2023-05-18T02:56:05.190Z,12.98
2023-05-18T02:59:04.153Z,13.01
2023-05-18T03:01:57.996Z,13.02
2023-05-18T03:04:49.380Z,13.05
2023-05-18T03:07:37.709Z,13.32
2023-05-18T03:10:25.635Z,13.25
2023-05-18T03:13:13.547Z,13.04
2023-05-18T03:16:01.677Z,12.80
2023-05-18T03:18:49.709Z,12.87
2023-05-18T03:21:39.046Z,12.90
2023-05-18T03:24:30.648Z,12.95
2023-05-18T03:27:25.566Z,13.06
2023-05-18T03:30:13.505Z,12.90
2023-05-18T03:33:04.734Z,13.07
2023-05-18T03:35:53.414Z,13.03
2023-05-18T03:38:41.973Z,13.02
2023-05-18T03:41:31.157Z,13.16
2023-05-18T03:44:18.926Z,13.04
2023-05-18T03:47:07.192Z,13.06
2023-05-18T03:49:54.899Z,13.00
2023-05-18T03:52:46.161Z,13.11
2023-05-18T03:55:33.985Z,13.19
2023-05-18T03:58:22.858Z,13.20
2023-05-18T04:01:10.955Z,13.23
2023-05-18T04:04:00.166Z,13.27
2023-05-18T04:06:51.788Z,13.27
2023-05-18T04:09:40.014Z,13.28
2023-05-18T04:12:27.803Z,13.34
2023-05-18T04:15:16.292Z,13.24
2023-05-18T04:18:05.617Z,13.32
2023-05-18T04:20:55.570Z,13.25
2023-05-18T04:23:45.333Z,13.19
2023-05-18T04:26:39.410Z,13.39
2023-05-18T04:29:30.682Z,13.34
2023-05-18T04:32:19.087Z,13.44
2023-05-18T04:35:08.109Z,13.28
2023-05-18T04:37:56.659Z,13.37
2023-05-18T04:40:44.604Z,13.29
2023-05-18T04:43:34.523Z,13.42
2023-05-18T04:46:22.576Z,13.40
2023-05-18T04:49:11.920Z,13.17
2023-05-18T04:52:00.179Z,13.51
2023-05-18T04:54:48.355Z,13.16
2023-05-18T04:57:36.266Z,13.50
2023-05-18T05:00:25.405Z,13.50
2023-05-18T05:03:13.305Z,13.54
2023-05-18T05:06:01.161Z,13.46
2023-05-18T05:08:49.968Z,13.49
2023-05-18T05:11:38.006Z,13.59
2023-05-18T05:14:28.166Z,13.76
2023-05-18T05:17:16.142Z,13.60
2023-05-18T05:20:04.523Z,13.87
2023-05-18T05:22:52.773Z,13.75
2023-05-18T05:25:44.414Z,13.72
2023-05-18T05:28:32.466Z,13.83
2023-05-18T05:31:20.482Z,13.93
2023-05-18T05:34:08.249Z,13.88
2023-05-18T05:36:57.350Z,13.92
2023-05-18T05:39:45.541Z,13.90
2023-05-18T05:42:36.385Z,13.88
2023-05-18T05:45:25.030Z,13.95
2023-05-18T05:48:19.021Z,14.01
2023-05-18T05:51:06.951Z,14.10
2023-05-18T05:53:54.880Z,14.26
2023-05-18T05:56:43.540Z,14.36
2023-05-18T05:59:31.997Z,14.25
2023-05-18T06:02:20.822Z,14.18
2023-05-18T06:05:09.698Z,14.47
2023-05-18T06:07:58.483Z,14.53
2023-05-18T06:10:46.225Z,14.52
2023-05-18T06:13:34.412Z,14.58
2023-05-18T06:16:22.775Z,14.59
2023-05-18T06:19:10.818Z,14.93
2023-05-18T06:21:58.547Z,15.03
2023-05-18T06:24:48.346Z,14.97
2023-05-18T06:28:05.354Z,14.96
2023-05-18T06:31:06.003Z,14.96
2023-05-18T06:34:16.179Z,14.85
2023-05-18T06:37:04.298Z,15.13
2023-05-18T06:39:52.062Z,15.05
2023-05-18T06:42:39.876Z,15.26
2023-05-18T06:45:47.884Z,15.79
2023-05-18T06:48:50.590Z,15.66
2023-05-18T06:51:38.263Z,15.81
2023-05-18T06:54:27.198Z,15.92
2023-05-18T06:57:15.065Z,15.54
2023-05-18T07:00:02.882Z,15.35
2023-05-18T07:02:52.287Z,15.40
2023-05-18T07:05:40.202Z,15.39
2023-05-18T07:08:27.910Z,15.67
2023-05-18T07:11:18.196Z,15.58
2023-05-18T07:14:09.335Z,15.78
2023-05-18T07:16:57.150Z,15.93
2023-05-18T07:19:44.960Z,15.92
2023-05-18T07:22:33.560Z,15.93
2023-05-18T07:25:21.441Z,16.24
2023-05-18T07:28:09.412Z,16.10
2023-05-18T07:30:57.150Z,16.33
2023-05-18T07:33:45.410Z,16.69
2023-05-18T07:36:35.407Z,16.75
2023-05-18T07:39:28.764Z,17.03
2023-05-18T07:42:21.506Z,16.94
2023-05-18T07:45:10.248Z,16.90
2023-05-18T07:47:58.164Z,17.07
2023-05-18T07:50:45.972Z,17.46
2023-05-18T07:53:46.261Z,17.17
2023-05-18T07:56:36.633Z,17.48
2023-05-18T07:59:27.524Z,17.56
2023-05-18T08:02:16.914Z,17.22
2023-05-18T08:05:05.023Z,17.34
2023-05-18T08:07:52.978Z,17.32
2023-05-18T08:10:40.866Z,17.60
2023-05-18T08:13:28.775Z,17.47
2023-05-18T08:16:16.659Z,17.71
2023-05-18T08:19:04.852Z,17.67
2023-05-18T08:21:52.522Z,17.69
2023-05-18T08:24:40.357Z,17.91
2023-05-18T08:27:29.544Z,17.78
2023-05-18T08:30:20.916Z,17.84
2023-05-18T08:33:09.530Z,18.03
2023-05-18T08:35:57.282Z,18.15
2023-05-18T08:38:45.017Z,18.06
2023-05-18T08:41:39.178Z,18.29
2023-05-18T08:44:31.633Z,18.40
2023-05-18T08:47:26.273Z,18.18
2023-05-18T08:50:17.970Z,17.88
2023-05-18T08:53:06.852Z,18.16
2023-05-18T08:55:55.557Z,18.13
2023-05-18T08:58:49.476Z,18.36
2023-05-18T09:01:37.703Z,18.38
2023-05-18T09:04:27.472Z,18.53
2023-05-18T09:07:16.310Z,18.64
2023-05-18T09:10:04.390Z,18.80
2023-05-18T09:12:53.362Z,18.52
2023-05-18T09:15:41.312Z,18.59
2023-05-18T09:18:28.970Z,18.64
2023-05-18T09:21:16.863Z,18.37
2023-05-18T09:24:05.297Z,18.40
2023-05-18T09:26:56.125Z,18.45
2023-05-18T09:29:55.320Z,18.67
2023-05-18T09:32:46.068Z,18.62
2023-05-18T09:35:34.364Z,18.31
2023-05-18T09:38:23.510Z,18.02
2023-05-18T09:41:12.828Z,18.14
2023-05-18T09:44:05.453Z,18.15
2023-05-18T09:46:56.856Z,18.46
2023-05-18T09:49:44.707Z,18.59
2023-05-18T09:52:41.423Z,18.45
2023-05-18T09:55:29.521Z,18.47
2023-05-18T09:58:17.785Z,18.63
2023-05-18T10:01:06.064Z,18.66
2023-05-18T10:04:04.256Z,18.70
2023-05-18T10:06:52.530Z,18.72
2023-05-18T10:09:41.890Z,18.31
2023-05-18T10:12:32.075Z,18.26
2023-05-18T10:15:22.860Z,18.22
2023-05-18T10:18:11.037Z,18.30
2023-05-18T10:21:01.207Z,18.04
2023-05-18T10:23:51.600Z,18.13
2023-05-18T10:26:40.982Z,18.22
2023-05-18T10:29:30.105Z,18.20
2023-05-18T10:32:20.980Z,18.37
2023-05-18T10:35:10.372Z,18.29
2023-05-18T10:38:00.278Z,18.44
2023-05-18T10:40:50.101Z,18.61
2023-05-18T10:43:38.237Z,18.83
2023-05-18T10:46:28.974Z,18.65
2023-05-18T10:49:18.150Z,18.79
2023-05-18T10:52:07.686Z,18.97
2023-05-18T10:54:55.559Z,18.63
2023-05-18T10:57:58.835Z,18.96
2023-05-18T11:00:54.489Z,18.58
2023-05-18T11:03:42.492Z,18.86
2023-05-18T11:06:30.271Z,18.88
2023-05-18T11:09:27.674Z,19.13
2023-05-18T11:12:18.169Z,19.15
2023-05-18T11:15:06.419Z,18.92
2023-05-18T11:18:13.538Z,18.53
2023-05-18T11:21:02.048Z,18.70
2023-05-18T11:24:11.461Z,18.79
2023-05-18T11:27:17.792Z,18.58
2023-05-18T11:30:25.859Z,18.48
2023-05-18T11:33:21.988Z,18.40
2023-05-18T11:36:13.883Z,18.57
2023-05-18T11:39:07.355Z,18.50
2023-05-18T11:42:13.336Z,18.40
2023-05-18T11:45:13.674Z,18.28
2023-05-18T11:48:03.660Z,18.39
2023-05-18T11:50:58.102Z,18.50
2023-05-18T11:53:45.813Z,18.36
2023-05-18T11:56:34.232Z,17.75
2023-05-18T11:59:37.420Z,17.87
2023-05-18T12:02:27.510Z,17.99
2023-05-18T12:05:15.537Z,17.73
2023-05-18T12:08:04.436Z,17.88
2023-05-18T12:10:52.806Z,17.65
2023-05-18T12:13:43.654Z,17.86
2023-05-18T12:16:31.355Z,17.95
2023-05-18T12:19:20.053Z,17.97
2023-05-18T12:22:09.550Z,18.00
2023-05-18T12:24:57.217Z,18.31
2023-05-18T12:27:46.353Z,18.76
2023-05-18T12:30:37.377Z,18.88
2023-05-18T12:33:25.176Z,18.78
2023-05-18T12:36:15.392Z,18.81
2023-05-18T12:39:05.216Z,18.91
2023-05-18T12:41:53.335Z,19.03
2023-05-18T12:44:44.075Z,19.08
2023-05-18T12:47:34.236Z,19.26
2023-05-18T12:50:23.815Z,19.43
2023-05-18T12:53:12.259Z,19.47
2023-05-18T12:56:01.814Z,19.16
2023-05-18T12:58:59.940Z,19.22
2023-05-18T13:01:47.784Z,19.39
2023-05-18T13:04:37.858Z,19.40
2023-05-18T13:07:27.005Z,19.47
2023-05-18T13:10:17.752Z,19.67
2023-05-18T13:13:05.618Z,19.70
2023-05-18T13:15:53.912Z,19.86
2023-05-18T13:18:47.177Z,19.89
2023-05-18T13:21:36.065Z,19.78
2023-05-18T13:24:23.855Z,19.66
2023-05-18T13:27:11.853Z,19.52
2023-05-18T13:29:59.985Z,19.42
2023-05-18T13:32:47.992Z,18.96
2023-05-18T13:35:42.330Z,19.56
2023-05-18T13:38:35.753Z,19.50
2023-05-18T13:41:23.539Z,19.55
2023-05-18T13:44:16.084Z,19.38
2023-05-18T13:47:03.874Z,19.25
2023-05-18T13:49:51.715Z,19.45
2023-05-18T13:52:39.450Z,19.23
2023-05-18T13:55:27.255Z,19.33
2023-05-18T13:58:14.865Z,19.36
2023-05-18T14:01:04.403Z,19.25
2023-05-18T14:03:52.280Z,19.15
2023-05-18T14:06:40.963Z,19.21
2023-05-18T14:09:28.705Z,18.87
2023-05-18T14:12:16.495Z,19.13
2023-05-18T14:15:05.664Z,19.03
2023-05-18T14:17:53.568Z,19.07
2023-05-18T14:20:41.285Z,19.23
2023-05-18T14:23:29.114Z,19.28
2023-05-18T14:26:16.909Z,18.98
2023-05-18T14:29:04.612Z,19.04
2023-05-18T14:31:52.328Z,18.95
2023-05-18T14:34:40.196Z,18.85
2023-05-18T14:37:28.159Z,19.11
2023-05-18T14:40:15.952Z,19.06
2023-05-18T14:43:03.665Z,18.66
2023-05-18T14:46:04.154Z,18.52
2023-05-18T14:48:56.199Z,18.70
2023-05-18T14:51:44.050Z,18.74
2023-05-18T14:54:31.692Z,18.45
2023-05-18T14:57:19.564Z,18.46
2023-05-18T15:00:07.929Z,18.50
2023-05-18T15:02:56.890Z,18.36
2023-05-18T15:05:45.876Z,18.36
2023-05-18T15:08:33.731Z,18.27
2023-05-18T15:11:22.920Z,18.17
2023-05-18T15:14:10.636Z,18.16
2023-05-18T15:16:58.888Z,18.19
2023-05-18T15:19:47.398Z,17.87
2023-05-18T15:22:36.085Z,18.05
2023-05-18T15:25:23.896Z,17.94
2023-05-18T15:28:11.630Z,17.80
2023-05-18T15:30:59.501Z,17.57
2023-05-18T15:33:47.488Z,17.60
2023-05-18T15:36:36.616Z,17.53
2023-05-18T15:39:24.362Z,17.63
2023-05-18T15:42:12.353Z,17.63
2023-05-18T15:45:00.137Z,17.65
2023-05-18T15:47:47.886Z,17.63
2023-05-18T15:50:35.573Z,17.59
2023-05-18T15:53:23.482Z,17.65
2023-05-18T15:56:11.246Z,17.54
2023-05-18T15:58:59.021Z,17.56
2023-05-18T16:01:46.806Z,17.60
2023-05-18T16:04:21.001Z,17.55
2023-05-18T16:07:08.847Z,17.38
2023-05-18T16:09:56.573Z,17.46
2023-05-18T16:12:44.294Z,17.45
2023-05-18T16:15:36.199Z,17.46
2023-05-18T16:18:23.914Z,17.42
2023-05-18T16:21:11.657Z,17.23
2023-05-18T16:23:59.602Z,17.38
2023-05-18T16:26:47.357Z,17.33
2023-05-18T16:29:35.169Z,17.10
2023-05-18T16:32:23.018Z,16.92
2023-05-18T16:35:13.580Z,17.07
2023-05-18T16:38:01.477Z,17.02
2023-05-18T16:40:49.218Z,16.91
2023-05-18T16:43:37.111Z,16.90
2023-05-18T16:46:25.944Z,16.89
2023-05-18T16:49:15.106Z,16.74
2023-05-18T16:52:03.858Z,16.46
2023-05-18T16:54:51.760Z,16.54
2023-05-18T16:57:39.900Z,16.50
2023-05-18T17:00:28.128Z,16.31
2023-05-18T17:03:19.548Z,16.19
2023-05-18T17:06:11.391Z,15.86
2023-05-18T17:08:59.832Z,16.15
2023-05-18T17:11:48.656Z,16.12
2023-05-18T17:14:36.555Z,16.26
2023-05-18T17:17:24.975Z,16.14
2023-05-18T17:20:16.163Z,16.20
2023-05-18T17:23:05.077Z,16.20
2023-05-18T17:26:01.010Z,16.00
2023-05-18T17:28:53.992Z,16.12
2023-05-18T17:31:41.927Z,15.94
2023-05-18T17:34:31.759Z,15.87
2023-05-18T17:37:20.840Z,16.05
2023-05-18T17:40:10.097Z,15.89
2023-05-18T17:42:59.595Z,15.89
2023-05-18T17:45:53.119Z,15.75
2023-05-18T17:48:55.591Z,15.79
2023-05-18T17:51:46.724Z,15.63
2023-05-18T17:54:42.350Z,15.71
2023-05-18T17:57:31.722Z,15.55
2023-05-18T18:00:21.269Z,15.63
2023-05-18T18:03:13.548Z,15.49
2023-05-18T18:06:01.852Z,15.65
2023-05-18T18:08:57.944Z,15.61
2023-05-18T18:11:45.764Z,15.59
2023-05-18T18:14:33.674Z,15.47
2023-05-18T18:17:21.472Z,15.36
2023-05-18T18:20:10.058Z,15.23
2023-05-18T18:23:01.017Z,15.30
2023-05-18T18:25:49.050Z,15.23
2023-05-18T18:28:37.327Z,15.19
2023-05-18T18:31:25.394Z,15.31
2023-05-18T18:34:16.516Z,14.93
2023-05-18T18:37:04.866Z,14.93
2023-05-18T18:39:52.592Z,15.00
2023-05-18T18:42:40.626Z,14.94
2023-05-18T18:45:30.264Z,14.62
2023-05-18T18:48:21.424Z,14.92
2023-05-18T18:51:09.055Z,14.75
2023-05-18T18:53:56.911Z,14.65
2023-05-18T18:56:45.013Z,14.60
2023-05-18T18:59:35.116Z,14.53
2023-05-18T19:02:24.131Z,14.54
2023-05-18T19:05:12.264Z,14.48
2023-05-18T19:08:03.254Z,14.39
2023-05-18T19:10:53.253Z,14.25
2023-05-18T19:13:40.957Z,14.21
2023-05-18T19:16:28.901Z,14.30
2023-05-18T19:19:19.489Z,14.37
2023-05-18T19:22:08.609Z,14.35
2023-05-18T19:24:56.765Z,14.43
2023-05-18T19:27:44.995Z,14.49
2023-05-18T19:30:32.941Z,14.52
2023-05-18T19:33:20.718Z,14.30
2023-05-18T19:36:11.780Z,14.43
2023-05-18T19:38:59.551Z,14.24
2023-05-18T19:41:47.481Z,14.20
2023-05-18T19:44:35.344Z,14.29
2023-05-18T19:47:23.160Z,14.33
2023-05-18T19:50:11.035Z,14.26
2023-05-18T19:52:58.730Z,14.20
2023-05-18T19:55:47.539Z,14.17
2023-05-18T19:58:36.522Z,14.26
2023-05-18T20:01:25.014Z,14.19
2023-05-18T20:04:15.312Z,14.09
2023-05-18T20:07:03.171Z,14.13
2023-05-18T20:09:53.259Z,13.90
2023-05-18T20:12:44.063Z,13.99
2023-05-18T20:15:35.449Z,14.06
2023-05-18T20:18:24.091Z,13.84
2023-05-18T20:21:11.844Z,13.97
2023-05-18T20:23:59.781Z,13.93
2023-05-18T20:26:47.544Z,13.98
2023-05-18T20:29:35.406Z,13.74
2023-05-18T20:32:23.463Z,13.87
2023-05-18T20:35:12.932Z,13.86
2023-05-18T20:38:15.043Z,13.75
2023-05-18T20:41:04.093Z,13.65
2023-05-18T20:43:51.940Z,13.78
2023-05-18T20:46:42.900Z,13.58
2023-05-18T20:49:30.821Z,13.60
2023-05-18T20:52:21.153Z,13.64
2023-05-18T20:55:09.627Z,13.52
2023-05-18T20:57:57.472Z,13.66
2023-05-18T21:00:46.798Z,13.56
2023-05-18T21:03:34.909Z,13.67
2023-05-18T21:06:23.335Z,13.30
2023-05-18T21:09:11.016Z,13.58
2023-05-18T21:11:58.782Z,13.70
2023-05-18T21:14:46.677Z,13.44
2023-05-18T21:17:34.531Z,13.63
2023-05-18T21:20:22.410Z,13.53
2023-05-18T21:23:10.135Z,13.39
2023-05-18T21:26:00.394Z,13.54
2023-05-18T21:28:48.202Z,13.34
2023-05-18T21:31:36.116Z,13.56
2023-05-18T21:34:43.510Z,13.54
2023-05-18T21:37:47.973Z,13.39
2023-05-18T21:40:38.810Z,13.48
2023-05-18T21:43:26.573Z,13.17
2023-05-18T21:46:14.309Z,13.38
2023-05-18T21:49:05.765Z,13.51
2023-05-18T21:51:53.549Z,13.37
2023-05-18T21:54:41.297Z,13.40
2023-05-18T21:57:29.008Z,13.35
2023-05-18T22:00:18.370Z,13.30
2023-05-18T22:03:06.099Z,13.29
2023-05-18T22:05:53.802Z,13.25
2023-05-18T22:08:41.867Z,13.12
2023-05-18T22:11:29.819Z,13.11
2023-05-18T22:14:18.188Z,13.00
2023-05-18T22:17:06.087Z,13.01
2023-05-18T22:19:54.115Z,12.84
2023-05-18T22:22:42.011Z,13.03
2023-05-18T22:25:30.810Z,12.87
2023-05-18T22:28:21.867Z,12.47
2023-05-18T22:31:11.886Z,12.69
2023-05-18T22:33:59.702Z,12.68
2023-05-18T22:36:47.470Z,12.70
2023-05-18T22:39:35.189Z,12.67
2023-05-18T22:42:22.930Z,12.62
2023-05-18T22:45:11.815Z,12.52
2023-05-18T22:48:00.013Z,12.38
2023-05-18T22:50:48.624Z,12.36
2023-05-18T22:53:36.342Z,12.41
2023-05-18T22:56:24.192Z,12.52
2023-05-18T22:59:12.202Z,12.52
2023-05-18T23:01:59.873Z,12.31
2023-05-18T23:04:47.576Z,12.38
2023-05-18T23:07:38.689Z,12.37
2023-05-18T23:10:28.701Z,12.14
2023-05-18T23:13:16.554Z,12.32
2023-05-18T23:16:04.412Z,12.30
2023-05-18T23:18:53.872Z,12.32
2023-05-18T23:21:41.655Z,12.19
2023-05-18T23:24:29.579Z,12.35
2023-05-18T23:27:17.731Z,12.09
2023-05-18T23:30:06.355Z,12.21
2023-05-18T23:32:54.885Z,12.06
2023-05-18T23:35:46.073Z,12.04
2023-05-18T23:38:37.928Z,11.81
2023-05-18T23:41:30.822Z,11.90
2023-05-18T23:44:19.003Z,11.86
2023-05-18T23:47:07.122Z,11.90
2023-05-18T23:49:55.173Z,11.85
2023-05-18T23:52:46.282Z,11.82
2023-05-18T23:55:36.228Z,11.76
2023-05-18T23:58:27.004Z,11.70
